Time,TemperatureF,DewpointF,PressureIn,WindDirection,WindDirectionDegrees,WindSpeedMPH,WindSpeedGustMPH,Humidity,HourlyPrecipIn,Conditions,Clouds,dailyrainin,SoftwareType,DateUTC
2013-04-22 00:05:00,38.5,33.0,30.52,WSW,249,1.0,2.0,80,0.00,,,0.00,weatherlink.com 1.10,2013-04-22 04:05:00,
2013-04-22 00:20:00,38.0,33.0,30.52,West,264,0.0,1.0,81,0.00,,,0.00,weatherlink.com 1.10,2013-04-22 04:20:00,
2013-04-22 00:35:00,38.3,33.0,30.52,WNW,298,0.0,2.0,81,0.00,,,0.00,weatherlink.com 1.10,2013-04-22 04:35:00,
2013-04-22 00:50:00,38.7,34.0,30.52,NW,323,2.0,4.0,83,0.00,,,0.00,weatherlink.com 1.10,2013-04-22 04:50:00,
2013-04-22 01:05:00,37.2,33.0,30.52,WSW,242,2.0,2.0,85,0.00,,,0.00,weatherlink.com 1.10,2013-04-22 05:05:00,
2013-04-22 01:20:00,36.6,33.0,30.51,West,262,0.0,1.0,86,0.00,,,0.00,weatherlink.com 1.10,2013-04-22 05:20:00,
2013-04-22 01:35:00,35.7,32.0,30.51,SW,226,1.0,1.0,87,0.00,,,0.00,weatherlink.com 1.10,2013-04-22 05:35:00,
2013-04-22 01:50:00,36.3,32.0,30.51,NW,309,1.0,3.0,85,0.00,,,0.00,weatherlink.com 1.10,2013-04-22 05:50:00,
2013-04-22 02:05:00,35.9,32.0,30.51,West,263,0.0,2.0,86,0.00,,,0.00,weatherlink.com 1.10,2013-04-22 06:05:00,
2013-04-22 02:20:00,35.3,32.0,30.51,WSW,249,1.0,2.0,86,0.00,,,0.00,weatherlink.com 1.10,2013-04-22 06:20:00,
2013-04-22 02:35:00,35.3,32.0,30.51,West,277,1.0,3.0,86,0.00,,,0.00,weatherlink.com 1.10,2013-04-22 06:35:00,
2013-04-22 02:50:00,35.2,32.0,30.51,WSW,243,0.0,1.0,88,0.00,,,0.00,weatherlink.com 1.10,2013-04-22 06:50:00,
2013-04-22 03:06:00,35.3,32.0,30.51,West,266,0.0,1.0,89,0.00,,,0.00,weatherlink.com 1.10,2013-04-22 07:06:00,
2013-04-22 03:21:00,35.0,32.0,30.51,WSW,257,0.0,1.0,89,0.00,,,0.00,weatherlink.com 1.10,2013-04-22 07:21:00,
2013-04-22 03:36:00,34.4,31.0,30.50,West,277,1.0,1.0,88,0.00,,,0.00,weatherlink.com 1.10,2013-04-22 07:36:00,
2013-04-22 03:51:00,34.5,32.0,30.50,West,264,0.0,1.0,89,0.00,,,0.00,weatherlink.com 1.10,2013-04-22 07:51:00,
2013-04-22 04:06:00,34.3,32.0,30.50,NW,308,1.0,2.0,91,0.00,,,0.00,weatherlink.com 1.10,2013-04-22 08:06:00,
2013-04-22 04:21:00,33.5,31.0,30.50,SW,224,1.0,1.0,90,0.00,,,0.00,weatherlink.com 1.10,2013-04-22 08:21:00,
2013-04-22 04:36:00,33.1,31.0,30.50,West,270,2.0,3.0,91,0.00,,,0.00,weatherlink.com 1.10,2013-04-22 08:36:00,
2013-04-22 04:51:00,32.6,30.0,30.50,West,270,0.0,2.0,91,0.00,,,0.00,weatherlink.com 1.10,2013-04-22 08:51:00,
2013-04-22 05:06:00,32.7,30.0,30.50,West,274,2.0,3.0,91,0.00,,,0.00,weatherlink.com 1.10,2013-04-22 09:06:00,
2013-04-22 05:21:00,32.4,30.0,30.50,SW,224,0.0,2.0,91,0.00,,,0.00,weatherlink.com 1.10,2013-04-22 09:21:00,
2013-04-22 05:36:00,32.1,30.0,30.50,SW,232,0.0,1.0,91,0.00,,,0.00,weatherlink.com 1.10,2013-04-22 09:36:00,
2013-04-22 05:51:00,32.4,30.0,30.49,WNW,292,1.0,-999.0,92,-99.99,,,0.00,weatherlink.com 1.10,2013-04-22 09:51:00,
2013-04-22 06:06:00,32.3,30.0,30.50,SW,233,1.0,3.0,92,0.00,,,0.00,weatherlink.com 1.10,2013-04-22 10:06:00,
2013-04-22 06:21:00,32.0,30.0,30.49,WNW,300,1.0,3.0,92,0.00,,,0.00,weatherlink.com 1.10,2013-04-22 10:21:00,
2013-04-22 06:36:00,32.0,29.0,30.49,SW,233,0.0,1.0,90,0.00,,,0.00,weatherlink.com 1.10,2013-04-22 10:36:00,
2013-04-22 06:51:00,32.1,30.0,30.50,WSW,241,0.0,1.0,90,0.00,,,0.00,weatherlink.com 1.10,2013-04-22 10:51:00,
2013-04-22 07:06:00,33.1,30.0,30.50,SW,229,0.0,1.0,89,0.00,,,0.00,weatherlink.com 1.10,2013-04-22 11:06:00,
2013-04-22 07:21:00,34.9,32.0,30.50,WSW,238,0.0,1.0,88,0.00,,,0.00,weatherlink.com 1.10,2013-04-22 11:21:00,
2013-04-22 07:35:00,36.1,32.0,30.51,WNW,284,0.0,1.0,84,0.00,,,0.00,weatherlink.com 1.10,2013-04-22 11:35:00,
2013-04-22 07:51:00,36.7,32.0,30.51,West,260,0.0,1.0,84,0.00,,,0.00,weatherlink.com 1.10,2013-04-22 11:51:00,
2013-04-22 08:06:00,38.3,32.0,30.51,WNW,300,0.0,3.0,79,0.00,,,0.00,weatherlink.com 1.10,2013-04-22 12:06:00,
2013-04-22 08:21:00,40.3,34.0,30.51,NNW,330,0.0,4.0,77,0.00,,,0.00,weatherlink.com 1.10,2013-04-22 12:21:00,
2013-04-22 08:36:00,41.2,33.0,30.51,North,349,1.0,3.0,72,0.00,,,0.00,weatherlink.com 1.10,2013-04-22 12:36:00,
2013-04-22 08:51:00,41.7,32.0,30.51,NNE,18,3.0,6.0,69,0.00,,,0.00,weatherlink.com 1.10,2013-04-22 12:51:00,
2013-04-22 09:06:00,42.4,32.0,30.51,NW,323,1.0,6.0,67,0.00,,,0.00,weatherlink.com 1.10,2013-04-22 13:06:00,
2013-04-22 09:21:00,43.6,31.0,30.51,NE,34,3.0,7.0,62,0.00,,,0.00,weatherlink.com 1.10,2013-04-22 13:21:00,
2013-04-22 09:36:00,44.5,31.0,30.51,NNW,340,2.0,7.0,59,0.00,,,0.00,weatherlink.com 1.10,2013-04-22 13:36:00,
2013-04-22 09:51:00,45.1,31.0,30.50,NNE,20,2.0,7.0,58,0.00,,,0.00,weatherlink.com 1.10,2013-04-22 13:51:00,
2013-04-22 10:07:00,45.4,30.0,30.50,NNW,333,4.0,9.0,56,0.00,,,0.00,weatherlink.com 1.10,2013-04-22 14:07:00,
2013-04-22 10:22:00,46.3,31.0,30.50,NNW,336,6.0,9.0,55,0.00,,,0.00,weatherlink.com 1.10,2013-04-22 14:22:00,
2013-04-22 10:37:00,46.5,30.0,30.49,WSW,239,2.0,6.0,54,0.00,,,0.00,weatherlink.com 1.10,2013-04-22 14:37:00,
2013-04-22 10:52:00,47.8,31.0,30.49,NNW,347,6.0,11.0,53,0.00,,,0.00,weatherlink.com 1.10,2013-04-22 14:52:00,
2013-04-22 11:07:00,48.0,30.0,30.49,NNW,336,0.0,10.0,51,0.00,,,0.00,weatherlink.com 1.10,2013-04-22 15:07:00,
2013-04-22 11:22:00,48.6,31.0,30.48,NW,323,4.0,10.0,51,0.00,,,0.00,weatherlink.com 1.10,2013-04-22 15:22:00,
2013-04-22 11:37:00,49.7,33.0,30.48,North,353,9.0,11.0,52,0.00,,,0.00,weatherlink.com 1.10,2013-04-22 15:37:00,
2013-04-22 11:52:00,49.6,31.0,30.47,NW,319,0.0,10.0,49,0.00,,,0.00,weatherlink.com 1.10,2013-04-22 15:52:00,
2013-04-22 12:07:00,53.2,32.0,30.47,West,277,0.0,3.0,45,0.00,,,0.00,weatherlink.com 1.10,2013-04-22 16:07:00,
2013-04-22 12:22:00,51.8,31.0,30.46,North,5,8.0,13.0,45,0.00,,,0.00,weatherlink.com 1.10,2013-04-22 16:22:00,
2013-04-22 12:37:00,51.1,31.0,30.45,NNE,18,4.0,9.0,46,0.00,,,0.00,weatherlink.com 1.10,2013-04-22 16:37:00,
2013-04-22 12:52:00,51.6,32.0,30.44,NNE,33,5.0,11.0,47,0.00,,,0.00,weatherlink.com 1.10,2013-04-22 16:52:00,
2013-04-22 13:07:00,51.9,31.0,30.43,NW,321,3.0,9.0,45,0.00,,,0.00,weatherlink.com 1.10,2013-04-22 17:07:00,
2013-04-22 13:22:00,53.9,30.0,30.43,NE,46,2.0,8.0,40,0.00,,,0.00,weatherlink.com 1.10,2013-04-22 17:22:00,
2013-04-22 13:37:00,53.3,30.0,30.42,NE,46,7.0,11.0,41,0.00,,,0.00,weatherlink.com 1.10,2013-04-22 17:37:00,
2013-04-22 13:52:00,54.2,30.0,30.41,NNW,330,4.0,9.0,39,0.00,,,0.00,weatherlink.com 1.10,2013-04-22 17:52:00,
2013-04-22 14:07:00,54.5,31.0,30.41,West,262,0.0,9.0,41,0.00,,,0.00,weatherlink.com 1.10,2013-04-22 18:07:00,
2013-04-22 14:22:00,55.3,29.0,30.40,South,170,6.0,9.0,37,0.00,,,0.00,weatherlink.com 1.10,2013-04-22 18:22:00,
2013-04-22 14:37:00,55.8,28.0,30.39,NNW,344,0.0,8.0,35,0.00,,,0.00,weatherlink.com 1.10,2013-04-22 18:37:00,
2013-04-22 14:52:00,57.8,29.0,30.39,ENE,65,3.0,7.0,33,0.00,,,0.00,weatherlink.com 1.10,2013-04-22 18:52:00,
2013-04-22 15:07:00,55.9,28.0,30.38,SE,143,6.0,9.0,35,0.00,,,0.00,weatherlink.com 1.10,2013-04-22 19:07:00,
2013-04-22 15:22:00,57.1,30.0,30.37,SSW,201,4.0,10.0,35,0.00,,,0.00,weatherlink.com 1.10,2013-04-22 19:22:00,
2013-04-22 15:37:00,57.1,24.0,30.36,SSE,164,0.0,14.0,28,0.00,,,0.00,weatherlink.com 1.10,2013-04-22 19:37:00,
2013-04-22 16:08:00,58.8,26.0,30.34,East,92,5.0,10.0,29,0.00,,,0.00,weatherlink.com 1.10,2013-04-22 20:08:00,
2013-04-22 16:23:00,57.5,24.0,30.34,SE,134,5.0,12.0,28,0.00,,,0.00,weatherlink.com 1.10,2013-04-22 20:23:00,
2013-04-22 16:38:00,57.8,26.0,30.34,SE,128,6.0,9.0,29,0.00,,,0.00,weatherlink.com 1.10,2013-04-22 20:38:00,
2013-04-22 16:53:00,58.1,31.0,30.33,SE,144,11.0,16.0,36,0.00,,,0.00,weatherlink.com 1.10,2013-04-22 20:53:00,
2013-04-22 17:08:00,57.6,31.0,30.33,ENE,68,9.0,13.0,37,0.00,,,0.00,weatherlink.com 1.10,2013-04-22 21:08:00,
2013-04-22 17:23:00,57.4,31.0,30.33,SE,143,8.0,11.0,37,0.00,,,0.00,weatherlink.com 1.10,2013-04-22 21:23:00,
2013-04-22 17:38:00,57.3,30.0,30.32,ESE,108,6.0,15.0,35,0.00,,,0.00,weatherlink.com 1.10,2013-04-22 21:38:00,
2013-04-22 17:53:00,57.7,32.0,30.32,ENE,76,9.0,10.0,38,0.00,,,0.00,weatherlink.com 1.10,2013-04-22 21:53:00,
2013-04-22 18:08:00,57.5,33.0,30.32,SE,129,7.0,10.0,39,0.00,,,0.00,weatherlink.com 1.10,2013-04-22 22:08:00,
2013-04-22 18:23:00,57.6,33.0,30.32,SSE,149,7.0,10.0,40,0.00,,,0.00,weatherlink.com 1.10,2013-04-22 22:23:00,
2013-04-22 18:39:00,56.9,33.0,30.32,ESE,122,9.0,12.0,41,0.00,,,0.00,weatherlink.com 1.10,2013-04-22 22:39:00,
2013-04-22 18:53:00,56.4,32.0,30.32,ESE,120,9.0,12.0,40,0.00,,,0.00,weatherlink.com 1.10,2013-04-22 22:53:00,
2013-04-22 19:08:00,55.8,33.0,30.32,East,90,6.0,11.0,42,0.00,,,0.00,weatherlink.com 1.10,2013-04-22 23:08:00,
2013-04-22 19:23:00,54.7,32.0,30.33,SE,134,7.0,12.0,43,0.00,,,0.00,weatherlink.com 1.10,2013-04-22 23:23:00,
2013-04-22 19:38:00,53.7,33.0,30.33,ESE,119,9.0,10.0,45,0.00,,,0.00,weatherlink.com 1.10,2013-04-22 23:38:00,
2013-04-22 19:53:00,52.4,34.0,30.34,ESE,115,8.0,10.0,49,0.00,,,0.00,weatherlink.com 1.10,2013-04-22 23:53:00,
2013-04-22 20:08:00,51.5,34.0,30.34,ESE,120,4.0,8.0,52,0.00,,,0.00,weatherlink.com 1.10,2013-04-23 00:08:00,
2013-04-22 20:23:00,50.5,34.0,30.34,ESE,117,4.0,5.0,54,0.00,,,0.00,weatherlink.com 1.10,2013-04-23 00:23:00,
2013-04-22 20:38:00,50.1,34.0,30.35,East,96,5.0,5.0,55,0.00,,,0.00,weatherlink.com 1.10,2013-04-23 00:38:00,
2013-04-22 20:53:00,49.2,35.0,30.35,SE,129,4.0,6.0,59,0.00,,,0.00,weatherlink.com 1.10,2013-04-23 00:53:00,
2013-04-22 21:08:00,48.6,35.0,30.36,ESE,115,2.0,2.0,59,0.00,,,0.00,weatherlink.com 1.10,2013-04-23 01:08:00,
2013-04-22 21:23:00,48.4,35.0,30.36,ESE,115,2.0,3.0,60,0.00,,,0.00,weatherlink.com 1.10,2013-04-23 01:23:00,
2013-04-22 21:38:00,48.0,35.0,30.36,East,100,1.0,3.0,61,0.00,,,0.00,weatherlink.com 1.10,2013-04-23 01:38:00,
2013-04-22 21:53:00,47.5,36.0,30.37,ENE,73,1.0,1.0,64,0.00,,,0.00,weatherlink.com 1.10,2013-04-23 01:53:00,
2013-04-22 22:08:00,47.6,35.0,30.37,ESE,105,3.0,6.0,62,0.00,,,0.00,weatherlink.com 1.10,2013-04-23 02:08:00,
2013-04-22 22:23:00,47.0,36.0,30.37,ENE,65,0.0,5.0,65,0.00,,,0.00,weatherlink.com 1.10,2013-04-23 02:23:00,
2013-04-22 22:38:00,46.4,36.0,30.37,NNE,27,0.0,2.0,67,0.00,,,0.00,weatherlink.com 1.10,2013-04-23 02:38:00,
2013-04-22 22:53:00,46.3,35.0,30.37,NE,56,1.0,2.0,66,0.00,,,0.00,weatherlink.com 1.10,2013-04-23 02:53:00,
2013-04-22 23:08:00,45.7,36.0,30.36,ENE,57,0.0,1.0,68,0.00,,,0.00,weatherlink.com 1.10,2013-04-23 03:08:00,
2013-04-22 23:23:00,44.0,35.0,30.36,ENE,63,0.0,1.0,72,0.00,,,0.00,weatherlink.com 1.10,2013-04-23 03:23:00,
2013-04-22 23:38:00,43.9,36.0,30.36,WSW,245,1.0,2.0,75,0.00,,,0.00,weatherlink.com 1.10,2013-04-23 03:38:00,
2013-04-22 23:53:00,42.0,37.0,30.35,NW,304,0.0,3.0,81,0.00,,,0.00,weatherlink.com 1.10,2013-04-23 03:53:00,